sensor_id;sensor_type;location;lat;lon;timestamp;temperature;humidity
2907;DHT22;1463;51.070;16.998;2022-07-11T00:02:21;16.80;99.90
2907;DHT22;1463;51.070;16.998;2022-07-11T00:04:50;16.70;99.90
2907;DHT22;1463;51.070;16.998;2022-07-11T00:07:17;16.70;99.90
2907;DHT22;1463;51.070;16.998;2022-07-11T00:09:44;16.70;99.90
2907;DHT22;1463;51.070;16.998;2022-07-11T00:12:12;16.70;99.90
2907;DHT22;1463;51.070;16.998;2022-07-11T00:14:39;16.60;99.90
2907;DHT22;1463;51.070;16.998;2022-07-11T00:17:07;16.60;99.90
2907;DHT22;1463;51.070;16.998;2022-07-11T00:19:34;16.70;99.90
2907;DHT22;1463;51.070;16.998;2022-07-11T00:22:03;16.60;99.90
2907;DHT22;1463;51.070;16.998;2022-07-11T00:24:31;16.60;99.90
2907;DHT22;1463;51.070;16.998;2022-07-11T00:26:58;16.70;99.90
2907;DHT22;1463;51.070;16.998;2022-07-11T00:29:25;16.70;99.90
2907;DHT22;1463;51.070;16.998;2022-07-11T00:31:52;16.70;99.90
2907;DHT22;1463;51.070;16.998;2022-07-11T00:34:19;16.70;99.90
2907;DHT22;1463;51.070;16.998;2022-07-11T00:36:46;16.70;99.90
2907;DHT22;1463;51.070;16.998;2022-07-11T00:39:15;16.70;99.90
2907;DHT22;1463;51.070;16.998;2022-07-11T00:41:42;16.70;99.90
2907;DHT22;1463;51.070;16.998;2022-07-11T00:44:09;16.70;99.90
2907;DHT22;1463;51.070;16.998;2022-07-11T00:46:37;16.70;99.90
2907;DHT22;1463;51.070;16.998;2022-07-11T00:49:04;16.70;99.90
2907;DHT22;1463;51.070;16.998;2022-07-11T00:51:31;16.60;99.90
2907;DHT22;1463;51.070;16.998;2022-07-11T00:53:58;16.60;99.90
2907;DHT22;1463;51.070;16.998;2022-07-11T00:56:28;16.50;99.90
2907;DHT22;1463;51.070;16.998;2022-07-11T00:58:56;16.50;99.90
2907;DHT22;1463;51.070;16.998;2022-07-11T01:01:24;16.40;99.90
2907;DHT22;1463;51.070;16.998;2022-07-11T01:03:51;16.40;99.90
2907;DHT22;1463;51.070;16.998;2022-07-11T01:06:19;16.30;99.90
2907;DHT22;1463;51.070;16.998;2022-07-11T01:08:46;16.30;99.90
2907;DHT22;1463;51.070;16.998;2022-07-11T01:11:13;16.20;99.90
2907;DHT22;1463;51.070;16.998;2022-07-11T01:13:44;16.10;99.90
2907;DHT22;1463;51.070;16.998;2022-07-11T01:16:12;16.10;99.90
2907;DHT22;1463;51.070;16.998;2022-07-11T01:18:40;16.10;99.90
2907;DHT22;1463;51.070;16.998;2022-07-11T01:23:55;16.00;99.90
2907;DHT22;1463;51.070;16.998;2022-07-11T01:26:22;16.00;99.90
2907;DHT22;1463;51.070;16.998;2022-07-11T01:28:50;15.90;99.90
2907;DHT22;1463;51.070;16.998;2022-07-11T01:31:19;15.90;99.90
2907;DHT22;1463;51.070;16.998;2022-07-11T01:33:46;15.90;99.90
2907;DHT22;1463;51.070;16.998;2022-07-11T01:36:14;15.80;99.90
2907;DHT22;1463;51.070;16.998;2022-07-11T01:38:41;15.80;99.90
2907;DHT22;1463;51.070;16.998;2022-07-11T01:41:09;15.80;99.90
2907;DHT22;1463;51.070;16.998;2022-07-11T01:43:36;15.70;99.90
2907;DHT22;1463;51.070;16.998;2022-07-11T01:46:04;15.70;99.90
2907;DHT22;1463;51.070;16.998;2022-07-11T01:48:31;15.70;99.90
2907;DHT22;1463;51.070;16.998;2022-07-11T01:50:58;15.60;99.90
2907;DHT22;1463;51.070;16.998;2022-07-11T01:53:26;15.50;99.90
2907;DHT22;1463;51.070;16.998;2022-07-11T01:55:53;15.50;99.90
2907;DHT22;1463;51.070;16.998;2022-07-11T01:58:21;15.40;99.90
2907;DHT22;1463;51.070;16.998;2022-07-11T02:00:49;15.30;99.90
2907;DHT22;1463;51.070;16.998;2022-07-11T02:03:16;15.30;99.90
2907;DHT22;1463;51.070;16.998;2022-07-11T02:05:43;15.20;99.90
2907;DHT22;1463;51.070;16.998;2022-07-11T02:08:11;15.10;99.90
2907;DHT22;1463;51.070;16.998;2022-07-11T02:10:43;15.10;99.90
2907;DHT22;1463;51.070;16.998;2022-07-11T02:13:10;15.00;99.90
2907;DHT22;1463;51.070;16.998;2022-07-11T02:15:39;15.00;99.90
2907;DHT22;1463;51.070;16.998;2022-07-11T02:18:07;15.00;99.90
2907;DHT22;1463;51.070;16.998;2022-07-11T02:20:34;15.00;99.90
2907;DHT22;1463;51.070;16.998;2022-07-11T02:23:02;14.90;99.90
2907;DHT22;1463;51.070;16.998;2022-07-11T02:25:29;14.90;99.90
2907;DHT22;1463;51.070;16.998;2022-07-11T02:27:57;14.80;99.90
2907;DHT22;1463;51.070;16.998;2022-07-11T02:30:24;14.70;99.90
2907;DHT22;1463;51.070;16.998;2022-07-11T02:32:53;14.70;99.90
2907;DHT22;1463;51.070;16.998;2022-07-11T02:35:20;14.60;99.90
2907;DHT22;1463;51.070;16.998;2022-07-11T02:37:47;14.60;99.90
2907;DHT22;1463;51.070;16.998;2022-07-11T02:40:15;14.50;99.90
2907;DHT22;1463;51.070;16.998;2022-07-11T02:42:43;14.50;99.90
2907;DHT22;1463;51.070;16.998;2022-07-11T02:45:10;14.50;99.90
2907;DHT22;1463;51.070;16.998;2022-07-11T02:47:38;14.50;99.90
2907;DHT22;1463;51.070;16.998;2022-07-11T02:50:08;14.50;99.90
2907;DHT22;1463;51.070;16.998;2022-07-11T02:52:36;14.50;99.90
2907;DHT22;1463;51.070;16.998;2022-07-11T02:55:05;14.60;99.90
2907;DHT22;1463;51.070;16.998;2022-07-11T02:57:32;14.50;99.90
2907;DHT22;1463;51.070;16.998;2022-07-11T03:00:00;14.60;99.90
2907;DHT22;1463;51.070;16.998;2022-07-11T03:02:27;14.50;99.90
2907;DHT22;1463;51.070;16.998;2022-07-11T03:04:55;14.50;99.90
2907;DHT22;1463;51.070;16.998;2022-07-11T03:07:24;14.50;99.90
2907;DHT22;1463;51.070;16.998;2022-07-11T03:09:52;14.40;99.90
2907;DHT22;1463;51.070;16.998;2022-07-11T03:12:19;14.30;99.90
2907;DHT22;1463;51.070;16.998;2022-07-11T03:14:46;14.30;99.90
2907;DHT22;1463;51.070;16.998;2022-07-11T03:17:14;14.40;99.90
2907;DHT22;1463;51.070;16.998;2022-07-11T03:19:41;14.30;99.90
2907;DHT22;1463;51.070;16.998;2022-07-11T03:22:09;14.30;99.90
2907;DHT22;1463;51.070;16.998;2022-07-11T03:24:38;14.30;99.90
2907;DHT22;1463;51.070;16.998;2022-07-11T03:27:06;14.20;99.90
2907;DHT22;1463;51.070;16.998;2022-07-11T03:29:34;14.20;99.90
2907;DHT22;1463;51.070;16.998;2022-07-11T03:32:01;14.30;99.90
2907;DHT22;1463;51.070;16.998;2022-07-11T03:34:29;14.40;99.90
2907;DHT22;1463;51.070;16.998;2022-07-11T03:36:56;14.40;99.90
2907;DHT22;1463;51.070;16.998;2022-07-11T03:39:23;14.40;99.90
2907;DHT22;1463;51.070;16.998;2022-07-11T03:41:52;14.40;99.90
2907;DHT22;1463;51.070;16.998;2022-07-11T03:44:19;14.40;99.90
2907;DHT22;1463;51.070;16.998;2022-07-11T03:46:47;14.40;99.90
2907;DHT22;1463;51.070;16.998;2022-07-11T03:49:15;14.40;99.90
2907;DHT22;1463;51.070;16.998;2022-07-11T03:51:42;14.40;99.90
2907;DHT22;1463;51.070;16.998;2022-07-11T03:54:09;14.50;99.90
2907;DHT22;1463;51.070;16.998;2022-07-11T03:56:36;14.50;99.90
2907;DHT22;1463;51.070;16.998;2022-07-11T03:59:05;14.50;99.90
2907;DHT22;1463;51.070;16.998;2022-07-11T04:01:32;14.40;99.90
2907;DHT22;1463;51.070;16.998;2022-07-11T04:04:00;14.40;99.90
2907;DHT22;1463;51.070;16.998;2022-07-11T04:06:27;14.50;99.90
2907;DHT22;1463;51.070;16.998;2022-07-11T04:08:54;14.40;99.90
2907;DHT22;1463;51.070;16.998;2022-07-11T04:11:21;14.50;99.90
2907;DHT22;1463;51.070;16.998;2022-07-11T04:13:48;14.40;99.90
2907;DHT22;1463;51.070;16.998;2022-07-11T04:16:17;14.50;99.90
2907;DHT22;1463;51.070;16.998;2022-07-11T04:18:44;14.50;99.90
2907;DHT22;1463;51.070;16.998;2022-07-11T04:21:12;14.50;99.90
2907;DHT22;1463;51.070;16.998;2022-07-11T04:23:39;14.40;99.90
2907;DHT22;1463;51.070;16.998;2022-07-11T04:26:06;14.40;99.90
2907;DHT22;1463;51.070;16.998;2022-07-11T04:28:33;14.50;99.90
2907;DHT22;1463;51.070;16.998;2022-07-11T04:31:01;14.50;99.90
2907;DHT22;1463;51.070;16.998;2022-07-11T04:33:29;14.60;99.90
2907;DHT22;1463;51.070;16.998;2022-07-11T04:35:56;14.60;99.90
2907;DHT22;1463;51.070;16.998;2022-07-11T04:38:23;14.70;99.90
2907;DHT22;1463;51.070;16.998;2022-07-11T04:40:51;14.70;99.90
2907;DHT22;1463;51.070;16.998;2022-07-11T04:43:18;14.70;99.90
2907;DHT22;1463;51.070;16.998;2022-07-11T04:45:45;14.70;99.90
2907;DHT22;1463;51.070;16.998;2022-07-11T04:48:13;14.80;99.90
2907;DHT22;1463;51.070;16.998;2022-07-11T04:50:43;14.90;99.90
2907;DHT22;1463;51.070;16.998;2022-07-11T04:53:11;14.80;99.90
2907;DHT22;1463;51.070;16.998;2022-07-11T04:55:39;14.90;99.90
2907;DHT22;1463;51.070;16.998;2022-07-11T04:58:07;15.00;99.90
2907;DHT22;1463;51.070;16.998;2022-07-11T05:00:34;15.10;99.90
2907;DHT22;1463;51.070;16.998;2022-07-11T05:03:01;15.20;99.90
2907;DHT22;1463;51.070;16.998;2022-07-11T05:05:28;15.20;99.90
2907;DHT22;1463;51.070;16.998;2022-07-11T05:07:57;15.30;99.90
2907;DHT22;1463;51.070;16.998;2022-07-11T05:10:24;15.40;99.90
2907;DHT22;1463;51.070;16.998;2022-07-11T05:12:51;15.40;99.90
2907;DHT22;1463;51.070;16.998;2022-07-11T05:15:18;15.50;99.90
2907;DHT22;1463;51.070;16.998;2022-07-11T05:17:46;15.50;99.90
2907;DHT22;1463;51.070;16.998;2022-07-11T05:20:13;15.60;99.90
2907;DHT22;1463;51.070;16.998;2022-07-11T05:22:40;15.60;99.90
2907;DHT22;1463;51.070;16.998;2022-07-11T05:25:10;15.80;99.90
2907;DHT22;1463;51.070;16.998;2022-07-11T05:27:37;15.90;99.90
2907;DHT22;1463;51.070;16.998;2022-07-11T05:30:05;16.00;99.90
2907;DHT22;1463;51.070;16.998;2022-07-11T05:32:33;16.00;99.90
2907;DHT22;1463;51.070;16.998;2022-07-11T05:35:00;16.10;99.90
2907;DHT22;1463;51.070;16.998;2022-07-11T05:37:29;16.10;99.90
2907;DHT22;1463;51.070;16.998;2022-07-11T05:39:56;16.10;99.90
2907;DHT22;1463;51.070;16.998;2022-07-11T05:42:25;16.10;99.90
2907;DHT22;1463;51.070;16.998;2022-07-11T05:44:53;16.10;99.90
2907;DHT22;1463;51.070;16.998;2022-07-11T05:47:20;16.00;99.90
2907;DHT22;1463;51.070;16.998;2022-07-11T05:49:47;16.00;99.90
2907;DHT22;1463;51.070;16.998;2022-07-11T05:52:14;15.90;99.90
2907;DHT22;1463;51.070;16.998;2022-07-11T05:54:41;16.00;99.90
2907;DHT22;1463;51.070;16.998;2022-07-11T05:57:09;16.00;99.90
2907;DHT22;1463;51.070;16.998;2022-07-11T05:59:37;16.10;99.90
2907;DHT22;1463;51.070;16.998;2022-07-11T06:02:04;16.10;99.90
2907;DHT22;1463;51.070;16.998;2022-07-11T06:04:32;16.20;99.90
2907;DHT22;1463;51.070;16.998;2022-07-11T06:06:59;16.30;99.90
2907;DHT22;1463;51.070;16.998;2022-07-11T06:09:26;16.40;99.90
2907;DHT22;1463;51.070;16.998;2022-07-11T06:11:53;16.50;99.90
2907;DHT22;1463;51.070;16.998;2022-07-11T06:14:20;16.50;99.90
2907;DHT22;1463;51.070;16.998;2022-07-11T06:16:49;16.50;99.90
2907;DHT22;1463;51.070;16.998;2022-07-11T06:19:17;16.50;99.90
2907;DHT22;1463;51.070;16.998;2022-07-11T06:21:44;16.60;99.90
2907;DHT22;1463;51.070;16.998;2022-07-11T06:24:11;16.70;99.90
2907;DHT22;1463;51.070;16.998;2022-07-11T06:26:38;16.70;99.90
2907;DHT22;1463;51.070;16.998;2022-07-11T06:29:05;16.80;99.90
2907;DHT22;1463;51.070;16.998;2022-07-11T06:31:33;16.80;99.90
2907;DHT22;1463;51.070;16.998;2022-07-11T06:34:02;16.90;99.90
2907;DHT22;1463;51.070;16.998;2022-07-11T06:36:29;17.00;99.90
2907;DHT22;1463;51.070;16.998;2022-07-11T06:38:56;17.20;99.90
2907;DHT22;1463;51.070;16.998;2022-07-11T06:41:24;17.30;99.90
2907;DHT22;1463;51.070;16.998;2022-07-11T06:43:51;17.30;99.90
2907;DHT22;1463;51.070;16.998;2022-07-11T06:46:18;17.40;99.90
2907;DHT22;1463;51.070;16.998;2022-07-11T06:48:45;17.40;99.90
2907;DHT22;1463;51.070;16.998;2022-07-11T06:51:14;17.40;99.90
2907;DHT22;1463;51.070;16.998;2022-07-11T06:53:41;17.30;99.90
2907;DHT22;1463;51.070;16.998;2022-07-11T06:56:09;17.30;99.90
2907;DHT22;1463;51.070;16.998;2022-07-11T06:58:36;17.20;99.90
2907;DHT22;1463;51.070;16.998;2022-07-11T07:01:05;17.20;99.90
2907;DHT22;1463;51.070;16.998;2022-07-11T07:03:33;17.10;99.90
2907;DHT22;1463;51.070;16.998;2022-07-11T07:06:00;17.10;99.90
2907;DHT22;1463;51.070;16.998;2022-07-11T07:08:33;17.20;99.90
2907;DHT22;1463;51.070;16.998;2022-07-11T07:11:00;17.20;99.90
2907;DHT22;1463;51.070;16.998;2022-07-11T07:13:27;17.20;99.90
2907;DHT22;1463;51.070;16.998;2022-07-11T07:15:55;17.20;99.90
2907;DHT22;1463;51.070;16.998;2022-07-11T07:18:22;17.20;99.90
2907;DHT22;1463;51.070;16.998;2022-07-11T07:20:49;17.10;99.90
2907;DHT22;1463;51.070;16.998;2022-07-11T07:23:17;17.00;99.90
2907;DHT22;1463;51.070;16.998;2022-07-11T07:25:45;17.10;99.90
2907;DHT22;1463;51.070;16.998;2022-07-11T07:28:12;17.10;99.90
2907;DHT22;1463;51.070;16.998;2022-07-11T07:30:40;17.20;99.90
2907;DHT22;1463;51.070;16.998;2022-07-11T07:33:08;17.30;99.90
2907;DHT22;1463;51.070;16.998;2022-07-11T07:35:37;17.40;99.90
2907;DHT22;1463;51.070;16.998;2022-07-11T07:38:05;17.50;99.90
2907;DHT22;1463;51.070;16.998;2022-07-11T07:40:32;17.50;99.90
2907;DHT22;1463;51.070;16.998;2022-07-11T07:43:01;17.60;99.90
2907;DHT22;1463;51.070;16.998;2022-07-11T07:45:28;17.70;99.90
2907;DHT22;1463;51.070;16.998;2022-07-11T07:47:56;17.70;99.90
2907;DHT22;1463;51.070;16.998;2022-07-11T07:50:23;17.80;99.90
2907;DHT22;1463;51.070;16.998;2022-07-11T07:52:50;17.80;99.90
2907;DHT22;1463;51.070;16.998;2022-07-11T07:55:18;17.90;99.90
2907;DHT22;1463;51.070;16.998;2022-07-11T07:57:45;17.90;99.90
2907;DHT22;1463;51.070;16.998;2022-07-11T08:00:14;18.00;99.90
2907;DHT22;1463;51.070;16.998;2022-07-11T08:03:03;18.20;99.90
2907;DHT22;1463;51.070;16.998;2022-07-11T08:05:30;18.40;99.90
2907;DHT22;1463;51.070;16.998;2022-07-11T08:07:57;18.50;99.90
2907;DHT22;1463;51.070;16.998;2022-07-11T08:10:25;18.50;99.90
2907;DHT22;1463;51.070;16.998;2022-07-11T08:12:52;18.60;99.90
2907;DHT22;1463;51.070;16.998;2022-07-11T08:15:22;18.70;99.90
2907;DHT22;1463;51.070;16.998;2022-07-11T08:17:49;18.80;99.90
2907;DHT22;1463;51.070;16.998;2022-07-11T08:20:18;18.90;99.90
2907;DHT22;1463;51.070;16.998;2022-07-11T08:22:46;18.90;99.90
2907;DHT22;1463;51.070;16.998;2022-07-11T08:25:15;19.00;99.90
2907;DHT22;1463;51.070;16.998;2022-07-11T08:27:43;19.10;99.90
2907;DHT22;1463;51.070;16.998;2022-07-11T08:30:12;19.10;99.90
2907;DHT22;1463;51.070;16.998;2022-07-11T08:32:42;19.10;99.90
2907;DHT22;1463;51.070;16.998;2022-07-11T08:35:10;19.20;99.90
2907;DHT22;1463;51.070;16.998;2022-07-11T08:37:41;19.30;99.90
2907;DHT22;1463;51.070;16.998;2022-07-11T08:40:09;19.30;99.90
2907;DHT22;1463;51.070;16.998;2022-07-11T08:42:39;19.40;99.90
2907;DHT22;1463;51.070;16.998;2022-07-11T08:45:10;19.50;99.90
2907;DHT22;1463;51.070;16.998;2022-07-11T08:47:38;19.60;99.90
2907;DHT22;1463;51.070;16.998;2022-07-11T08:50:09;19.60;99.90
2907;DHT22;1463;51.070;16.998;2022-07-11T08:52:39;19.50;99.90
2907;DHT22;1463;51.070;16.998;2022-07-11T08:55:12;19.50;99.90
2907;DHT22;1463;51.070;16.998;2022-07-11T08:57:39;19.40;99.90
2907;DHT22;1463;51.070;16.998;2022-07-11T09:00:08;19.20;99.90
2907;DHT22;1463;51.070;16.998;2022-07-11T09:02:37;19.10;99.90
2907;DHT22;1463;51.070;16.998;2022-07-11T09:05:09;19.10;99.90
2907;DHT22;1463;51.070;16.998;2022-07-11T09:07:44;19.00;99.90
2907;DHT22;1463;51.070;16.998;2022-07-11T09:10:12;19.00;99.90
2907;DHT22;1463;51.070;16.998;2022-07-11T09:12:48;19.00;99.90
2907;DHT22;1463;51.070;16.998;2022-07-11T09:15:35;19.00;99.90
2907;DHT22;1463;51.070;16.998;2022-07-11T09:18:05;19.10;99.90
2907;DHT22;1463;51.070;16.998;2022-07-11T09:23:33;19.20;99.90
2907;DHT22;1463;51.070;16.998;2022-07-11T09:26:19;19.30;99.90
2907;DHT22;1463;51.070;16.998;2022-07-11T09:28:58;19.30;99.90
2907;DHT22;1463;51.070;16.998;2022-07-11T09:31:27;19.30;99.90
2907;DHT22;1463;51.070;16.998;2022-07-11T09:34:00;19.20;99.90
2907;DHT22;1463;51.070;16.998;2022-07-11T09:36:38;19.10;99.90
2907;DHT22;1463;51.070;16.998;2022-07-11T09:39:12;19.10;99.90
2907;DHT22;1463;51.070;16.998;2022-07-11T09:41:40;19.30;99.90
2907;DHT22;1463;51.070;16.998;2022-07-11T09:44:14;19.40;99.90
2907;DHT22;1463;51.070;16.998;2022-07-11T09:46:43;19.60;99.90
2907;DHT22;1463;51.070;16.998;2022-07-11T09:49:11;19.70;99.90
2907;DHT22;1463;51.070;16.998;2022-07-11T09:51:39;19.90;99.90
2907;DHT22;1463;51.070;16.998;2022-07-11T09:54:09;20.00;99.90
2907;DHT22;1463;51.070;16.998;2022-07-11T09:56:40;20.00;99.90
2907;DHT22;1463;51.070;16.998;2022-07-11T09:59:08;20.00;99.90
2907;DHT22;1463;51.070;16.998;2022-07-11T10:01:38;20.10;99.90
2907;DHT22;1463;51.070;16.998;2022-07-11T10:04:06;20.00;99.90
2907;DHT22;1463;51.070;16.998;2022-07-11T10:06:35;20.00;99.90
2907;DHT22;1463;51.070;16.998;2022-07-11T10:09:05;19.90;99.90
2907;DHT22;1463;51.070;16.998;2022-07-11T10:11:33;20.00;99.90
2907;DHT22;1463;51.070;16.998;2022-07-11T10:14:03;20.00;99.90
2907;DHT22;1463;51.070;16.998;2022-07-11T10:16:39;19.90;99.90
2907;DHT22;1463;51.070;16.998;2022-07-11T10:19:11;19.80;99.90
2907;DHT22;1463;51.070;16.998;2022-07-11T10:21:42;19.70;99.90
2907;DHT22;1463;51.070;16.998;2022-07-11T10:24:16;19.70;99.90
2907;DHT22;1463;51.070;16.998;2022-07-11T10:26:48;19.70;99.90
2907;DHT22;1463;51.070;16.998;2022-07-11T10:29:19;19.70;99.90
2907;DHT22;1463;51.070;16.998;2022-07-11T10:32:04;19.70;99.90
2907;DHT22;1463;51.070;16.998;2022-07-11T10:34:31;19.70;99.90
2907;DHT22;1463;51.070;16.998;2022-07-11T10:37:01;19.70;99.90
2907;DHT22;1463;51.070;16.998;2022-07-11T10:39:30;19.70;99.90
2907;DHT22;1463;51.070;16.998;2022-07-11T10:42:00;19.70;99.90
2907;DHT22;1463;51.070;16.998;2022-07-11T10:44:28;19.80;99.90
2907;DHT22;1463;51.070;16.998;2022-07-11T10:46:57;20.00;99.90
2907;DHT22;1463;51.070;16.998;2022-07-11T10:49:29;20.20;99.90
2907;DHT22;1463;51.070;16.998;2022-07-11T10:52:03;20.40;99.90
2907;DHT22;1463;51.070;16.998;2022-07-11T10:54:36;20.50;99.90
2907;DHT22;1463;51.070;16.998;2022-07-11T10:57:12;20.60;99.90
2907;DHT22;1463;51.070;16.998;2022-07-11T10:59:57;20.80;99.90
2907;DHT22;1463;51.070;16.998;2022-07-11T11:02:25;20.90;99.90
2907;DHT22;1463;51.070;16.998;2022-07-11T11:04:53;20.80;99.90
2907;DHT22;1463;51.070;16.998;2022-07-11T11:07:36;20.70;99.90
2907;DHT22;1463;51.070;16.998;2022-07-11T11:10:07;20.60;99.90
2907;DHT22;1463;51.070;16.998;2022-07-11T11:15:34;20.70;99.90
2907;DHT22;1463;51.070;16.998;2022-07-11T11:23:37;20.70;99.90
2907;DHT22;1463;51.070;16.998;2022-07-11T11:26:05;20.90;99.90
2907;DHT22;1463;51.070;16.998;2022-07-11T11:28:35;21.00;99.90
2907;DHT22;1463;51.070;16.998;2022-07-11T11:31:07;21.20;99.90
2907;DHT22;1463;51.070;16.998;2022-07-11T11:33:36;21.10;99.90
2907;DHT22;1463;51.070;16.998;2022-07-11T11:36:05;21.00;99.90
2907;DHT22;1463;51.070;16.998;2022-07-11T11:38:34;21.00;99.90
2907;DHT22;1463;51.070;16.998;2022-07-11T11:41:03;21.20;99.90
2907;DHT22;1463;51.070;16.998;2022-07-11T11:43:32;21.30;99.90
2907;DHT22;1463;51.070;16.998;2022-07-11T11:46:02;21.30;99.90
2907;DHT22;1463;51.070;16.998;2022-07-11T11:48:32;21.30;99.30
2907;DHT22;1463;51.070;16.998;2022-07-11T11:51:01;21.20;98.80
2907;DHT22;1463;51.070;16.998;2022-07-11T11:53:38;21.20;98.60
2907;DHT22;1463;51.070;16.998;2022-07-11T11:56:14;21.30;98.40
2907;DHT22;1463;51.070;16.998;2022-07-11T11:58:43;21.40;97.80
2907;DHT22;1463;51.070;16.998;2022-07-11T12:01:12;21.50;98.60
2907;DHT22;1463;51.070;16.998;2022-07-11T12:03:49;21.60;97.30
2907;DHT22;1463;51.070;16.998;2022-07-11T12:06:21;21.70;98.00
2907;DHT22;1463;51.070;16.998;2022-07-11T12:08:50;21.70;96.90
2907;DHT22;1463;51.070;16.998;2022-07-11T12:11:18;21.80;95.40
2907;DHT22;1463;51.070;16.998;2022-07-11T12:13:48;21.90;95.00
2907;DHT22;1463;51.070;16.998;2022-07-11T12:16:23;21.80;94.50
2907;DHT22;1463;51.070;16.998;2022-07-11T12:19:11;22.00;94.20
2907;DHT22;1463;51.070;16.998;2022-07-11T12:21:40;22.00;91.90
2907;DHT22;1463;51.070;16.998;2022-07-11T12:24:08;22.00;90.40
2907;DHT22;1463;51.070;16.998;2022-07-11T12:26:39;22.00;89.70
2907;DHT22;1463;51.070;16.998;2022-07-11T12:29:09;21.80;92.40
2907;DHT22;1463;51.070;16.998;2022-07-11T12:31:45;21.60;91.90
2907;DHT22;1463;51.070;16.998;2022-07-11T12:34:17;21.60;92.80
2907;DHT22;1463;51.070;16.998;2022-07-11T12:36:45;21.60;93.70
2907;DHT22;1463;51.070;16.998;2022-07-11T12:42:00;21.90;90.80
2907;DHT22;1463;51.070;16.998;2022-07-11T12:44:30;22.00;88.20
2907;DHT22;1463;51.070;16.998;2022-07-11T12:47:16;22.10;84.10
2907;DHT22;1463;51.070;16.998;2022-07-11T12:49:54;22.00;86.70
2907;DHT22;1463;51.070;16.998;2022-07-11T12:52:22;21.90;88.30
2907;DHT22;1463;51.070;16.998;2022-07-11T12:54:54;22.00;90.10
2907;DHT22;1463;51.070;16.998;2022-07-11T12:57:28;21.70;90.30
2907;DHT22;1463;51.070;16.998;2022-07-11T12:59:57;21.60;90.30
2907;DHT22;1463;51.070;16.998;2022-07-11T13:02:41;21.20;88.70
2907;DHT22;1463;51.070;16.998;2022-07-11T13:05:14;20.60;86.60
2907;DHT22;1463;51.070;16.998;2022-07-11T13:07:43;20.20;92.20
2907;DHT22;1463;51.070;16.998;2022-07-11T13:10:29;19.70;99.90
2907;DHT22;1463;51.070;16.998;2022-07-11T13:13:17;19.00;99.90
2907;DHT22;1463;51.070;16.998;2022-07-11T13:15:46;18.80;99.90
2907;DHT22;1463;51.070;16.998;2022-07-11T13:18:17;18.70;99.90
2907;DHT22;1463;51.070;16.998;2022-07-11T13:20:47;18.60;99.90
2907;DHT22;1463;51.070;16.998;2022-07-11T13:23:33;18.80;99.90
2907;DHT22;1463;51.070;16.998;2022-07-11T13:26:18;19.00;99.90
2907;DHT22;1463;51.070;16.998;2022-07-11T13:28:46;19.40;99.90
2907;DHT22;1463;51.070;16.998;2022-07-11T13:31:15;19.60;99.90
2907;DHT22;1463;51.070;16.998;2022-07-11T13:33:44;19.80;99.90
2907;DHT22;1463;51.070;16.998;2022-07-11T13:36:14;19.80;99.90
2907;DHT22;1463;51.070;16.998;2022-07-11T13:38:43;19.50;99.90
2907;DHT22;1463;51.070;16.998;2022-07-11T13:41:11;19.50;99.90
2907;DHT22;1463;51.070;16.998;2022-07-11T13:43:40;19.40;99.90
2907;DHT22;1463;51.070;16.998;2022-07-11T13:46:08;19.30;99.90
2907;DHT22;1463;51.070;16.998;2022-07-11T13:48:37;19.10;99.90
2907;DHT22;1463;51.070;16.998;2022-07-11T13:51:10;19.10;99.90
2907;DHT22;1463;51.070;16.998;2022-07-11T13:53:43;19.20;99.90
2907;DHT22;1463;51.070;16.998;2022-07-11T13:56:12;19.30;99.90
2907;DHT22;1463;51.070;16.998;2022-07-11T13:58:39;19.50;99.90
2907;DHT22;1463;51.070;16.998;2022-07-11T14:01:07;19.50;99.90
2907;DHT22;1463;51.070;16.998;2022-07-11T14:03:35;19.70;99.90
2907;DHT22;1463;51.070;16.998;2022-07-11T14:06:03;19.90;99.90
2907;DHT22;1463;51.070;16.998;2022-07-11T14:08:31;20.10;99.90
2907;DHT22;1463;51.070;16.998;2022-07-11T14:11:01;20.30;99.90
2907;DHT22;1463;51.070;16.998;2022-07-11T14:13:29;20.50;99.90
2907;DHT22;1463;51.070;16.998;2022-07-11T14:15:58;20.60;99.90
2907;DHT22;1463;51.070;16.998;2022-07-11T14:18:27;20.70;99.90
2907;DHT22;1463;51.070;16.998;2022-07-11T14:20:56;20.80;99.90
2907;DHT22;1463;51.070;16.998;2022-07-11T14:23:31;20.80;99.90
2907;DHT22;1463;51.070;16.998;2022-07-11T14:26:00;20.80;99.90
2907;DHT22;1463;51.070;16.998;2022-07-11T14:28:37;20.90;99.90
2907;DHT22;1463;51.070;16.998;2022-07-11T14:31:05;20.90;99.90
2907;DHT22;1463;51.070;16.998;2022-07-11T14:33:34;21.00;99.90
2907;DHT22;1463;51.070;16.998;2022-07-11T14:36:02;21.00;99.90
2907;DHT22;1463;51.070;16.998;2022-07-11T14:38:32;21.10;99.90
2907;DHT22;1463;51.070;16.998;2022-07-11T14:41:01;21.10;99.90
2907;DHT22;1463;51.070;16.998;2022-07-11T14:43:29;21.10;99.90
2907;DHT22;1463;51.070;16.998;2022-07-11T14:45:59;21.10;99.90
2907;DHT22;1463;51.070;16.998;2022-07-11T14:48:27;21.00;99.90
2907;DHT22;1463;51.070;16.998;2022-07-11T14:50:56;20.90;99.80
2907;DHT22;1463;51.070;16.998;2022-07-11T14:53:24;20.80;99.90
2907;DHT22;1463;51.070;16.998;2022-07-11T14:55:53;20.80;99.90
2907;DHT22;1463;51.070;16.998;2022-07-11T14:58:21;20.70;99.90
2907;DHT22;1463;51.070;16.998;2022-07-11T15:00:50;20.70;99.30
2907;DHT22;1463;51.070;16.998;2022-07-11T15:03:22;20.70;98.20
2907;DHT22;1463;51.070;16.998;2022-07-11T15:06:12;20.70;98.50
2907;DHT22;1463;51.070;16.998;2022-07-11T15:08:40;20.60;98.60
2907;DHT22;1463;51.070;16.998;2022-07-11T15:14:25;20.50;99.90
2907;DHT22;1463;51.070;16.998;2022-07-11T15:16:53;20.40;99.90
2907;DHT22;1463;51.070;16.998;2022-07-11T15:19:23;20.30;99.90
2907;DHT22;1463;51.070;16.998;2022-07-11T15:21:52;20.20;99.90
2907;DHT22;1463;51.070;16.998;2022-07-11T15:24:20;20.20;99.90
2907;DHT22;1463;51.070;16.998;2022-07-11T15:26:48;20.10;99.90
2907;DHT22;1463;51.070;16.998;2022-07-11T15:29:15;19.90;99.90
2907;DHT22;1463;51.070;16.998;2022-07-11T15:31:44;19.70;99.90
2907;DHT22;1463;51.070;16.998;2022-07-11T15:34:12;19.40;99.90
2907;DHT22;1463;51.070;16.998;2022-07-11T15:36:44;19.10;99.90
2907;DHT22;1463;51.070;16.998;2022-07-11T15:39:12;19.10;99.90
2907;DHT22;1463;51.070;16.998;2022-07-11T15:41:40;19.10;99.90
2907;DHT22;1463;51.070;16.998;2022-07-11T15:44:09;19.10;99.90
2907;DHT22;1463;51.070;16.998;2022-07-11T15:46:38;19.10;99.90
2907;DHT22;1463;51.070;16.998;2022-07-11T15:49:06;19.10;99.90
2907;DHT22;1463;51.070;16.998;2022-07-11T15:51:34;19.20;99.90
2907;DHT22;1463;51.070;16.998;2022-07-11T15:54:06;19.30;99.90
2907;DHT22;1463;51.070;16.998;2022-07-11T15:56:33;19.40;99.90
2907;DHT22;1463;51.070;16.998;2022-07-11T15:59:01;19.40;99.90
2907;DHT22;1463;51.070;16.998;2022-07-11T16:01:30;19.40;99.90
2907;DHT22;1463;51.070;16.998;2022-07-11T16:03:59;19.40;99.90
2907;DHT22;1463;51.070;16.998;2022-07-11T16:06:27;19.40;99.90
2907;DHT22;1463;51.070;16.998;2022-07-11T16:08:55;19.40;99.90
2907;DHT22;1463;51.070;16.998;2022-07-11T16:11:25;19.40;99.90
2907;DHT22;1463;51.070;16.998;2022-07-11T16:13:53;19.40;99.90
2907;DHT22;1463;51.070;16.998;2022-07-11T16:16:21;19.50;99.90
2907;DHT22;1463;51.070;16.998;2022-07-11T16:18:50;19.50;99.90